sensor_id;sensor_type;location;lat;lon;timestamp;pressure;altitude;pressure_sealevel;temperature;humidity
2339;BME280;1180;51.438;6.978;2024-01-30T00:00:20;101378.28;;;13.22;71.54
2339;BME280;1180;51.438;6.978;2024-01-30T00:02:46;101375.03;;;13.19;71.63
2339;BME280;1180;51.438;6.978;2024-01-30T00:05:11;101372.19;;;13.07;71.97
2339;BME280;1180;51.438;6.978;2024-01-30T00:07:37;101376.19;;;13.13;72.22
2339;BME280;1180;51.438;6.978;2024-01-30T00:10:02;101382.41;;;13.09;71.66
2339;BME280;1180;51.438;6.978;2024-01-30T00:12:28;101376.75;;;13.02;72.02
2339;BME280;1180;51.438;6.978;2024-01-30T00:14:53;101378.66;;;13.14;71.67
2339;BME280;1180;51.438;6.978;2024-01-30T00:17:19;101374.28;;;13.17;71.63
2339;BME280;1180;51.438;6.978;2024-01-30T00:19:46;101372.59;;;13.15;71.58
2339;BME280;1180;51.438;6.978;2024-01-30T00:22:11;101372.28;;;13.22;71.13
2339;BME280;1180;51.438;6.978;2024-01-30T00:24:36;101363.72;;;13.21;71.04
2339;BME280;1180;51.438;6.978;2024-01-30T00:27:02;101367.22;;;13.20;71.36
2339;BME280;1180;51.438;6.978;2024-01-30T00:29:27;101366.53;;;13.17;71.10
2339;BME280;1180;51.438;6.978;2024-01-30T00:31:56;101362.22;;;13.17;71.30
2339;BME280;1180;51.438;6.978;2024-01-30T00:34:21;101356.38;;;13.13;71.39
2339;BME280;1180;51.438;6.978;2024-01-30T00:36:47;101361.22;;;13.20;70.93
2339;BME280;1180;51.438;6.978;2024-01-30T00:39:12;101358.56;;;13.21;71.11
2339;BME280;1180;51.438;6.978;2024-01-30T00:41:37;101355.16;;;13.21;71.07
2339;BME280;1180;51.438;6.978;2024-01-30T00:44:03;101359.50;;;13.20;71.22
2339;BME280;1180;51.438;6.978;2024-01-30T00:46:28;101357.66;;;13.22;70.94
2339;BME280;1180;51.438;6.978;2024-01-30T00:48:54;101357.88;;;13.18;70.81
2339;BME280;1180;51.438;6.978;2024-01-30T00:51:19;101353.47;;;13.20;71.11
2339;BME280;1180;51.438;6.978;2024-01-30T00:53:45;101348.25;;;13.21;70.70
2339;BME280;1180;51.438;6.978;2024-01-30T00:56:10;101356.97;;;13.19;70.58
2339;BME280;1180;51.438;6.978;2024-01-30T00:58:36;101353.91;;;13.12;70.94
2339;BME280;1180;51.438;6.978;2024-01-30T01:01:01;101353.16;;;13.10;70.84
2339;BME280;1180;51.438;6.978;2024-01-30T01:03:27;101352.91;;;13.14;71.12
2339;BME280;1180;51.438;6.978;2024-01-30T01:05:52;101356.16;;;13.18;70.75
2339;BME280;1180;51.438;6.978;2024-01-30T01:08:18;101358.81;;;13.17;70.88
2339;BME280;1180;51.438;6.978;2024-01-30T01:10:43;101355.56;;;13.13;71.03
2339;BME280;1180;51.438;6.978;2024-01-30T01:13:08;101355.47;;;13.14;70.72
2339;BME280;1180;51.438;6.978;2024-01-30T01:15:34;101361.47;;;13.15;70.97
2339;BME280;1180;51.438;6.978;2024-01-30T01:18:00;101353.59;;;13.18;70.68
2339;BME280;1180;51.438;6.978;2024-01-30T01:20:25;101358.81;;;13.17;70.48
2339;BME280;1180;51.438;6.978;2024-01-30T01:22:50;101360.41;;;13.19;70.42
2339;BME280;1180;51.438;6.978;2024-01-30T01:25:17;101361.53;;;13.13;70.38
2339;BME280;1180;51.438;6.978;2024-01-30T01:27:43;101359.97;;;13.11;70.90
2339;BME280;1180;51.438;6.978;2024-01-30T01:30:10;101362.28;;;13.15;70.98
2339;BME280;1180;51.438;6.978;2024-01-30T01:32:36;101356.16;;;13.18;70.53
2339;BME280;1180;51.438;6.978;2024-01-30T01:35:02;101353.59;;;13.18;70.46
2339;BME280;1180;51.438;6.978;2024-01-30T01:37:27;101353.66;;;13.17;70.84
2339;BME280;1180;51.438;6.978;2024-01-30T01:39:53;101355.63;;;13.11;70.42
2339;BME280;1180;51.438;6.978;2024-01-30T01:42:18;101355.75;;;13.10;71.15
2339;BME280;1180;51.438;6.978;2024-01-30T01:44:44;101349.91;;;13.06;70.79
2339;BME280;1180;51.438;6.978;2024-01-30T01:47:09;101351.72;;;13.04;70.85
2339;BME280;1180;51.438;6.978;2024-01-30T01:49:35;101347.09;;;13.11;70.51
2339;BME280;1180;51.438;6.978;2024-01-30T01:52:00;101342.06;;;13.08;70.64
2339;BME280;1180;51.438;6.978;2024-01-30T01:54:26;101342.84;;;13.10;70.89
2339;BME280;1180;51.438;6.978;2024-01-30T01:56:53;101344.66;;;13.08;70.82
2339;BME280;1180;51.438;6.978;2024-01-30T01:59:19;101339.81;;;13.02;71.10
2339;BME280;1180;51.438;6.978;2024-01-30T02:01:46;101343.16;;;13.04;70.72
2339;BME280;1180;51.438;6.978;2024-01-30T02:04:14;101334.75;;;13.00;71.04
2339;BME280;1180;51.438;6.978;2024-01-30T02:06:39;101332.78;;;13.05;71.14
2339;BME280;1180;51.438;6.978;2024-01-30T02:09:05;101346.41;;;13.07;70.89
2339;BME280;1180;51.438;6.978;2024-01-30T02:11:30;101339.50;;;13.08;70.75
2339;BME280;1180;51.438;6.978;2024-01-30T02:13:56;101331.09;;;13.04;70.70
2339;BME280;1180;51.438;6.978;2024-01-30T02:16:22;101330.84;;;13.09;70.67
2339;BME280;1180;51.438;6.978;2024-01-30T02:18:47;101330.56;;;13.15;70.16
2339;BME280;1180;51.438;6.978;2024-01-30T02:21:16;101321.38;;;13.09;70.43
2339;BME280;1180;51.438;6.978;2024-01-30T02:23:43;101322.88;;;13.13;70.45
2339;BME280;1180;51.438;6.978;2024-01-30T02:26:09;101319.78;;;13.07;70.89
2339;BME280;1180;51.438;6.978;2024-01-30T02:28:35;101315.88;;;12.99;71.38
2339;BME280;1180;51.438;6.978;2024-01-30T02:31:00;101324.28;;;13.03;71.29
2339;BME280;1180;51.438;6.978;2024-01-30T02:33:25;101318.22;;;13.04;70.85
2339;BME280;1180;51.438;6.978;2024-01-30T02:35:51;101316.97;;;12.95;70.91
2339;BME280;1180;51.438;6.978;2024-01-30T02:38:16;101312.66;;;12.96;71.08
2339;BME280;1180;51.438;6.978;2024-01-30T02:40:42;101309.16;;;12.97;71.25
2339;BME280;1180;51.438;6.978;2024-01-30T02:43:07;101305.84;;;12.95;71.53
2339;BME280;1180;51.438;6.978;2024-01-30T02:45:32;101308.09;;;13.01;70.97
2339;BME280;1180;51.438;6.978;2024-01-30T02:47:58;101304.31;;;12.91;71.57
2339;BME280;1180;51.438;6.978;2024-01-30T02:50:23;101299.94;;;12.93;71.18
2339;BME280;1180;51.438;6.978;2024-01-30T02:52:49;101311.13;;;12.92;71.50
2339;BME280;1180;51.438;6.978;2024-01-30T02:55:14;101295.91;;;12.87;71.41
2339;BME280;1180;51.438;6.978;2024-01-30T02:57:42;101298.09;;;12.95;71.14
2339;BME280;1180;51.438;6.978;2024-01-30T03:00:08;101290.66;;;12.89;71.10
2339;BME280;1180;51.438;6.978;2024-01-30T03:02:35;101291.34;;;12.92;71.27
2339;BME280;1180;51.438;6.978;2024-01-30T03:05:00;101291.13;;;12.97;71.49
2339;BME280;1180;51.438;6.978;2024-01-30T03:07:27;101290.28;;;12.96;71.15
2339;BME280;1180;51.438;6.978;2024-01-30T03:09:52;101285.72;;;13.02;71.19
2339;BME280;1180;51.438;6.978;2024-01-30T03:12:20;101282.38;;;12.99;70.75
2339;BME280;1180;51.438;6.978;2024-01-30T03:14:46;101282.88;;;12.90;71.78
2339;BME280;1180;51.438;6.978;2024-01-30T03:17:11;101281.91;;;12.93;71.21
2339;BME280;1180;51.438;6.978;2024-01-30T03:19:36;101279.06;;;12.97;71.22
2339;BME280;1180;51.438;6.978;2024-01-30T03:22:02;101286.19;;;12.92;71.24
2339;BME280;1180;51.438;6.978;2024-01-30T03:24:27;101281.63;;;12.97;71.42
2339;BME280;1180;51.438;6.978;2024-01-30T03:26:53;101278.81;;;13.02;71.08
2339;BME280;1180;51.438;6.978;2024-01-30T03:29:18;101286.72;;;12.99;70.83
2339;BME280;1180;51.438;6.978;2024-01-30T03:31:44;101280.88;;;12.95;71.10
2339;BME280;1180;51.438;6.978;2024-01-30T03:34:09;101277.78;;;12.89;71.23
2339;BME280;1180;51.438;6.978;2024-01-30T03:36:34;101275.22;;;12.89;71.67
2339;BME280;1180;51.438;6.978;2024-01-30T03:39:01;101275.31;;;12.87;71.76
2339;BME280;1180;51.438;6.978;2024-01-30T03:41:26;101279.03;;;12.81;71.69
2339;BME280;1180;51.438;6.978;2024-01-30T03:43:52;101274.47;;;12.86;71.84
2339;BME280;1180;51.438;6.978;2024-01-30T03:46:17;101272.56;;;12.90;71.53
2339;BME280;1180;51.438;6.978;2024-01-30T03:48:43;101261.13;;;12.96;71.26
2339;BME280;1180;51.438;6.978;2024-01-30T03:51:09;101273.66;;;13.02;71.22
2339;BME280;1180;51.438;6.978;2024-01-30T03:53:39;101265.03;;;13.03;71.01
2339;BME280;1180;51.438;6.978;2024-01-30T03:56:05;101263.53;;;12.99;71.33
2339;BME280;1180;51.438;6.978;2024-01-30T03:58:30;101268.41;;;13.04;70.84
2339;BME280;1180;51.438;6.978;2024-01-30T04:00:55;101261.75;;;12.99;71.18
2339;BME280;1180;51.438;6.978;2024-01-30T04:03:21;101258.38;;;12.99;71.33
2339;BME280;1180;51.438;6.978;2024-01-30T04:05:46;101257.63;;;12.97;71.29
2339;BME280;1180;51.438;6.978;2024-01-30T04:08:11;101252.78;;;12.91;71.36
2339;BME280;1180;51.438;6.978;2024-01-30T04:10:37;101254.44;;;12.92;70.99
2339;BME280;1180;51.438;6.978;2024-01-30T04:13:02;101250.53;;;12.84;71.27
2339;BME280;1180;51.438;6.978;2024-01-30T04:15:28;101257.19;;;12.89;71.67
2339;BME280;1180;51.438;6.978;2024-01-30T04:17:57;101241.31;;;12.96;71.40
2339;BME280;1180;51.438;6.978;2024-01-30T04:20:22;101254.63;;;13.05;70.50
2339;BME280;1180;51.438;6.978;2024-01-30T04:22:48;101246.72;;;13.08;70.71
2339;BME280;1180;51.438;6.978;2024-01-30T04:25:13;101238.84;;;13.11;70.26
2339;BME280;1180;51.438;6.978;2024-01-30T04:27:39;101238.25;;;13.06;70.58
2339;BME280;1180;51.438;6.978;2024-01-30T04:30:05;101239.00;;;13.08;70.65
2339;BME280;1180;51.438;6.978;2024-01-30T04:32:32;101238.19;;;13.07;70.16
2339;BME280;1180;51.438;6.978;2024-01-30T04:34:57;101231.88;;;12.97;70.58
2339;BME280;1180;51.438;6.978;2024-01-30T04:37:23;101232.03;;;12.94;71.13
2339;BME280;1180;51.438;6.978;2024-01-30T04:39:48;101228.19;;;13.01;70.61
2339;BME280;1180;51.438;6.978;2024-01-30T04:42:13;101237.84;;;12.97;70.49
2339;BME280;1180;51.438;6.978;2024-01-30T04:44:39;101243.72;;;12.99;71.19
2339;BME280;1180;51.438;6.978;2024-01-30T04:47:04;101237.94;;;12.96;70.70
2339;BME280;1180;51.438;6.978;2024-01-30T04:49:31;101232.50;;;13.00;70.99
2339;BME280;1180;51.438;6.978;2024-01-30T04:51:57;101236.09;;;12.98;71.13
2339;BME280;1180;51.438;6.978;2024-01-30T04:54:23;101231.75;;;12.98;70.77
2339;BME280;1180;51.438;6.978;2024-01-30T04:56:48;101238.09;;;12.93;70.99
2339;BME280;1180;51.438;6.978;2024-01-30T04:59:13;101245.47;;;12.83;71.90
2339;BME280;1180;51.438;6.978;2024-01-30T05:01:39;101245.22;;;12.88;71.71
2339;BME280;1180;51.438;6.978;2024-01-30T05:04:07;101241.66;;;12.90;71.36
2339;BME280;1180;51.438;6.978;2024-01-30T05:06:33;101240.75;;;12.91;71.43
2339;BME280;1180;51.438;6.978;2024-01-30T05:08:58;101234.50;;;12.95;71.23
2339;BME280;1180;51.438;6.978;2024-01-30T05:11:23;101239.59;;;12.97;71.04
2339;BME280;1180;51.438;6.978;2024-01-30T05:13:49;101233.34;;;12.85;71.20
2339;BME280;1180;51.438;6.978;2024-01-30T05:16:14;101239.31;;;12.85;71.54
2339;BME280;1180;51.438;6.978;2024-01-30T05:18:39;101239.81;;;12.92;71.09
2339;BME280;1180;51.438;6.978;2024-01-30T05:21:05;101241.31;;;12.96;70.99
2339;BME280;1180;51.438;6.978;2024-01-30T05:23:30;101236.50;;;12.90;71.20
2339;BME280;1180;51.438;6.978;2024-01-30T05:25:56;101231.59;;;12.85;71.13
2339;BME280;1180;51.438;6.978;2024-01-30T05:28:21;101239.06;;;12.74;71.72
2339;BME280;1180;51.438;6.978;2024-01-30T05:30:47;101234.81;;;12.73;71.60
2339;BME280;1180;51.438;6.978;2024-01-30T05:33:12;101232.94;;;12.77;71.79
2339;BME280;1180;51.438;6.978;2024-01-30T05:35:38;101232.31;;;12.71;72.21
2339;BME280;1180;51.438;6.978;2024-01-30T05:38:04;101235.81;;;12.70;72.29
2339;BME280;1180;51.438;6.978;2024-01-30T05:40:30;101233.16;;;12.72;71.71
2339;BME280;1180;51.438;6.978;2024-01-30T05:42:55;101233.00;;;12.75;71.91
2339;BME280;1180;51.438;6.978;2024-01-30T05:45:21;101229.66;;;12.73;72.28
2339;BME280;1180;51.438;6.978;2024-01-30T05:47:48;101241.47;;;12.77;71.73
2339;BME280;1180;51.438;6.978;2024-01-30T05:50:13;101237.97;;;12.78;72.08
2339;BME280;1180;51.438;6.978;2024-01-30T05:52:39;101230.34;;;12.77;71.96
2339;BME280;1180;51.438;6.978;2024-01-30T05:55:04;101226.34;;;12.71;71.98
2339;BME280;1180;51.438;6.978;2024-01-30T05:57:30;101227.25;;;12.70;72.28
2339;BME280;1180;51.438;6.978;2024-01-30T05:59:56;101228.81;;;12.73;72.14
2339;BME280;1180;51.438;6.978;2024-01-30T06:02:21;101223.84;;;12.69;72.65
2339;BME280;1180;51.438;6.978;2024-01-30T06:04:46;101214.59;;;12.65;72.63
2339;BME280;1180;51.438;6.978;2024-01-30T06:07:12;101215.28;;;12.69;72.39
2339;BME280;1180;51.438;6.978;2024-01-30T06:09:37;101218.19;;;12.63;72.60
2339;BME280;1180;51.438;6.978;2024-01-30T06:12:04;101223.56;;;12.58;73.08
2339;BME280;1180;51.438;6.978;2024-01-30T06:14:30;101218.03;;;12.66;72.97
2339;BME280;1180;51.438;6.978;2024-01-30T06:16:56;101226.34;;;12.71;72.50
2339;BME280;1180;51.438;6.978;2024-01-30T06:19:21;101228.00;;;12.72;72.68
2339;BME280;1180;51.438;6.978;2024-01-30T06:21:46;101231.16;;;12.77;72.66
2339;BME280;1180;51.438;6.978;2024-01-30T06:24:12;101230.84;;;12.83;72.21
2339;BME280;1180;51.438;6.978;2024-01-30T06:26:37;101231.41;;;12.73;72.46
2339;BME280;1180;51.438;6.978;2024-01-30T06:29:02;101224.50;;;12.73;72.67
2339;BME280;1180;51.438;6.978;2024-01-30T06:31:28;101224.34;;;12.76;72.55
2339;BME280;1180;51.438;6.978;2024-01-30T06:33:53;101227.69;;;12.78;72.58
2339;BME280;1180;51.438;6.978;2024-01-30T06:36:19;101224.03;;;12.82;72.31
2339;BME280;1180;51.438;6.978;2024-01-30T06:38:44;101229.84;;;12.86;72.47
2339;BME280;1180;51.438;6.978;2024-01-30T06:41:10;101219.44;;;12.88;72.03
2339;BME280;1180;51.438;6.978;2024-01-30T06:43:35;101220.38;;;12.86;72.42
2339;BME280;1180;51.438;6.978;2024-01-30T06:46:00;101217.88;;;12.69;72.75
2339;BME280;1180;51.438;6.978;2024-01-30T06:48:26;101217.44;;;12.61;73.59
2339;BME280;1180;51.438;6.978;2024-01-30T06:50:54;101217.03;;;12.68;73.24
2339;BME280;1180;51.438;6.978;2024-01-30T06:53:19;101217.69;;;12.72;72.81
2339;BME280;1180;51.438;6.978;2024-01-30T06:55:45;101229.09;;;12.68;73.31
2339;BME280;1180;51.438;6.978;2024-01-30T06:58:10;101226.50;;;12.68;73.63
2339;BME280;1180;51.438;6.978;2024-01-30T07:00:36;101224.34;;;12.76;73.12
2339;BME280;1180;51.438;6.978;2024-01-30T07:03:01;101227.19;;;12.88;72.64
2339;BME280;1180;51.438;6.978;2024-01-30T07:05:27;101223.84;;;12.85;72.74
2339;BME280;1180;51.438;6.978;2024-01-30T07:07:52;101232.25;;;12.89;72.51
2339;BME280;1180;51.438;6.978;2024-01-30T07:10:17;101235.66;;;12.90;72.61
2339;BME280;1180;51.438;6.978;2024-01-30T07:12:43;101241.00;;;13.03;72.07
2339;BME280;1180;51.438;6.978;2024-01-30T07:15:08;101239.50;;;12.98;72.36
2339;BME280;1180;51.438;6.978;2024-01-30T07:17:35;101241.84;;;13.03;72.18
2339;BME280;1180;51.438;6.978;2024-01-30T07:20:01;101244.81;;;12.95;72.73
2339;BME280;1180;51.438;6.978;2024-01-30T07:22:29;101255.22;;;12.94;72.80
2339;BME280;1180;51.438;6.978;2024-01-30T07:24:55;101250.81;;;12.96;72.45
2339;BME280;1180;51.438;6.978;2024-01-30T07:27:20;101249.72;;;13.00;72.72
2339;BME280;1180;51.438;6.978;2024-01-30T07:29:46;101251.06;;;13.07;72.28
2339;BME280;1180;51.438;6.978;2024-01-30T07:32:14;101255.13;;;12.95;72.51
2339;BME280;1180;51.438;6.978;2024-01-30T07:34:39;101249.16;;;12.95;72.78
2339;BME280;1180;51.438;6.978;2024-01-30T07:37:05;101257.19;;;13.05;72.31
2339;BME280;1180;51.438;6.978;2024-01-30T07:39:30;101257.13;;;13.06;72.28
2339;BME280;1180;51.438;6.978;2024-01-30T07:41:55;101262.28;;;13.06;72.25
2339;BME280;1180;51.438;6.978;2024-01-30T07:44:22;101248.81;;;13.01;72.67
2339;BME280;1180;51.438;6.978;2024-01-30T07:46:47;101252.31;;;13.00;73.04
2339;BME280;1180;51.438;6.978;2024-01-30T07:49:12;101248.66;;;13.04;72.48
2339;BME280;1180;51.438;6.978;2024-01-30T07:51:39;101258.69;;;13.09;74.94
2339;BME280;1180;51.438;6.978;2024-01-30T07:54:13;101262.28;;;13.22;74.48
2339;BME280;1180;51.438;6.978;2024-01-30T07:56:39;101270.34;;;13.32;72.09
2339;BME280;1180;51.438;6.978;2024-01-30T07:59:04;101270.94;;;13.21;71.71
2339;BME280;1180;51.438;6.978;2024-01-30T08:01:29;101273.41;;;13.23;71.96
2339;BME280;1180;51.438;6.978;2024-01-30T08:03:55;101274.25;;;13.23;71.82
2339;BME280;1180;51.438;6.978;2024-01-30T08:06:20;101286.00;;;13.13;72.57
2339;BME280;1180;51.438;6.978;2024-01-30T08:08:45;101281.41;;;13.18;72.53
2339;BME280;1180;51.438;6.978;2024-01-30T08:11:12;101276.91;;;13.22;72.37
2339;BME280;1180;51.438;6.978;2024-01-30T08:13:37;101271.59;;;13.25;72.27
2339;BME280;1180;51.438;6.978;2024-01-30T08:16:02;101277.91;;;13.19;72.47
2339;BME280;1180;51.438;6.978;2024-01-30T08:18:28;101285.66;;;13.19;72.95
2339;BME280;1180;51.438;6.978;2024-01-30T08:20:53;101292.06;;;13.12;73.50
2339;BME280;1180;51.438;6.978;2024-01-30T08:23:18;101287.88;;;13.09;73.67
2339;BME280;1180;51.438;6.978;2024-01-30T08:25:44;101298.69;;;13.00;74.14
2339;BME280;1180;51.438;6.978;2024-01-30T08:28:09;101293.19;;;13.06;74.02
2339;BME280;1180;51.438;6.978;2024-01-30T08:30:35;101295.38;;;13.14;73.63
2339;BME280;1180;51.438;6.978;2024-01-30T08:33:00;101294.19;;;13.20;73.39
2339;BME280;1180;51.438;6.978;2024-01-30T08:35:26;101294.03;;;13.23;73.43
2339;BME280;1180;51.438;6.978;2024-01-30T08:37:51;101289.03;;;13.20;73.38
2339;BME280;1180;51.438;6.978;2024-01-30T08:40:16;101294.03;;;13.23;73.57
2339;BME280;1180;51.438;6.978;2024-01-30T08:42:42;101289.63;;;13.25;73.41
2339;BME280;1180;51.438;6.978;2024-01-30T08:45:08;101300.44;;;13.32;73.22
2339;BME280;1180;51.438;6.978;2024-01-30T08:47:34;101292.97;;;13.27;73.58
2339;BME280;1180;51.438;6.978;2024-01-30T08:49:59;101302.69;;;13.38;73.19
2339;BME280;1180;51.438;6.978;2024-01-30T08:52:25;101304.53;;;13.36;73.16
2339;BME280;1180;51.438;6.978;2024-01-30T08:54:50;101294.31;;;13.34;73.44
2339;BME280;1180;51.438;6.978;2024-01-30T08:57:15;101305.00;;;13.44;73.14
2339;BME280;1180;51.438;6.978;2024-01-30T08:59:41;101308.22;;;13.48;73.11
2339;BME280;1180;51.438;6.978;2024-01-30T09:02:06;101302.25;;;13.47;73.03
2339;BME280;1180;51.438;6.978;2024-01-30T09:04:31;101308.88;;;13.51;72.81
2339;BME280;1180;51.438;6.978;2024-01-30T09:06:57;101308.22;;;13.48;73.16
2339;BME280;1180;51.438;6.978;2024-01-30T09:09:22;101298.31;;;13.56;72.77
2339;BME280;1180;51.438;6.978;2024-01-30T09:11:47;101304.88;;;13.62;72.55
2339;BME280;1180;51.438;6.978;2024-01-30T09:14:13;101312.63;;;13.62;72.47
2339;BME280;1180;51.438;6.978;2024-01-30T09:16:39;101319.69;;;13.58;72.71
2339;BME280;1180;51.438;6.978;2024-01-30T09:19:05;101321.19;;;13.62;73.11
2339;BME280;1180;51.438;6.978;2024-01-30T09:21:30;101336.50;;;13.65;72.64
2339;BME280;1180;51.438;6.978;2024-01-30T09:24:01;101343.31;;;13.66;72.79
2339;BME280;1180;51.438;6.978;2024-01-30T09:26:27;101333.00;;;13.66;72.47
2339;BME280;1180;51.438;6.978;2024-01-30T09:28:52;101328.25;;;13.75;72.16
2339;BME280;1180;51.438;6.978;2024-01-30T09:31:18;101342.28;;;13.85;71.60
2339;BME280;1180;51.438;6.978;2024-01-30T09:33:43;101336.78;;;13.91;71.55
2339;BME280;1180;51.438;6.978;2024-01-30T09:36:11;101337.63;;;13.92;71.50
2339;BME280;1180;51.438;6.978;2024-01-30T09:38:37;101330.13;;;13.87;71.78
2339;BME280;1180;51.438;6.978;2024-01-30T09:41:09;101331.97;;;13.85;71.69
2339;BME280;1180;51.438;6.978;2024-01-30T09:43:37;101332.22;;;13.96;70.95
2339;BME280;1180;51.438;6.978;2024-01-30T09:46:03;101333.44;;;14.05;70.90
2339;BME280;1180;51.438;6.978;2024-01-30T09:48:30;101330.78;;;14.07;70.47
2339;BME280;1180;51.438;6.978;2024-01-30T09:50:57;101331.78;;;14.04;71.05
2339;BME280;1180;51.438;6.978;2024-01-30T09:53:23;101329.69;;;14.11;70.88
2339;BME280;1180;51.438;6.978;2024-01-30T09:55:50;101325.19;;;14.14;70.61
2339;BME280;1180;51.438;6.978;2024-01-30T09:58:15;101331.72;;;14.20;70.48
2339;BME280;1180;51.438;6.978;2024-01-30T10:00:41;101332.66;;;14.19;70.63
2339;BME280;1180;51.438;6.978;2024-01-30T10:03:06;101332.56;;;14.21;70.92
2339;BME280;1180;51.438;6.978;2024-01-30T10:05:32;101322.72;;;14.27;70.55
2339;BME280;1180;51.438;6.978;2024-01-30T10:07:59;101336.63;;;14.25;70.88
2339;BME280;1180;51.438;6.978;2024-01-30T10:10:25;101329.38;;;14.32;70.96
2339;BME280;1180;51.438;6.978;2024-01-30T10:12:51;101333.81;;;14.44;70.09
2339;BME280;1180;51.438;6.978;2024-01-30T10:15:17;101326.44;;;14.52;69.65
2339;BME280;1180;51.438;6.978;2024-01-30T10:17:44;101320.47;;;14.52;70.13
2339;BME280;1180;51.438;6.978;2024-01-30T10:20:10;101328.97;;;14.68;69.53
2339;BME280;1180;51.438;6.978;2024-01-30T10:22:35;101318.66;;;14.83;68.35
2339;BME280;1180;51.438;6.978;2024-01-30T10:25:01;101325.69;;;14.81;68.80
2339;BME280;1180;51.438;6.978;2024-01-30T10:27:26;101319.03;;;14.77;68.58
2339;BME280;1180;51.438;6.978;2024-01-30T10:29:52;101327.72;;;14.76;68.74
2339;BME280;1180;51.438;6.978;2024-01-30T10:32:18;101340.91;;;14.71;69.32
2339;BME280;1180;51.438;6.978;2024-01-30T10:34:44;101330.19;;;14.77;68.48
2339;BME280;1180;51.438;6.978;2024-01-30T10:37:11;101338.50;;;14.82;68.04
2339;BME280;1180;51.438;6.978;2024-01-30T10:39:44;101345.44;;;14.82;68.31
2339;BME280;1180;51.438;6.978;2024-01-30T10:42:17;101342.31;;;14.77;68.18
2339;BME280;1180;51.438;6.978;2024-01-30T10:47:21;101351.25;;;14.71;69.25
2339;BME280;1180;51.438;6.978;2024-01-30T10:49:51;101342.91;;;14.66;69.04
2339;BME280;1180;51.438;6.978;2024-01-30T10:52:18;101345.31;;;14.69;69.63
2339;BME280;1180;51.438;6.978;2024-01-30T10:54:44;101352.34;;;14.81;68.91
2339;BME280;1180;51.438;6.978;2024-01-30T10:57:11;101362.31;;;14.73;69.03
2339;BME280;1180;51.438;6.978;2024-01-30T10:59:38;101356.06;;;14.92;68.60
2339;BME280;1180;51.438;6.978;2024-01-30T11:02:04;101359.28;;;14.81;69.10
2339;BME280;1180;51.438;6.978;2024-01-30T11:04:37;101353.81;;;14.85;69.00
2339;BME280;1180;51.438;6.978;2024-01-30T11:07:02;101356.03;;;14.77;69.83
2339;BME280;1180;51.438;6.978;2024-01-30T11:09:29;101354.84;;;14.83;69.03
2339;BME280;1180;51.438;6.978;2024-01-30T11:11:58;101338.53;;;14.97;69.11
2339;BME280;1180;51.438;6.978;2024-01-30T11:14:29;101335.09;;;14.96;69.14
2339;BME280;1180;51.438;6.978;2024-01-30T11:16:59;101345.59;;;15.08;69.03
2339;BME280;1180;51.438;6.978;2024-01-30T11:19:30;101343.88;;;15.08;68.52
2339;BME280;1180;51.438;6.978;2024-01-30T11:21:55;101341.66;;;15.02;69.38
2339;BME280;1180;51.438;6.978;2024-01-30T11:24:25;101338.53;;;14.97;69.68
2339;BME280;1180;51.438;6.978;2024-01-30T11:26:56;101348.66;;;15.00;69.44
2339;BME280;1180;51.438;6.978;2024-01-30T11:29:29;101349.97;;;14.93;69.85
2339;BME280;1180;51.438;6.978;2024-01-30T11:31:56;101355.69;;;14.98;69.86
2339;BME280;1180;51.438;6.978;2024-01-30T11:34:22;101355.69;;;14.98;70.76
2339;BME280;1180;51.438;6.978;2024-01-30T11:36:52;101357.72;;;14.93;70.11
2339;BME280;1180;51.438;6.978;2024-01-30T11:39:20;101360.94;;;14.96;70.72
2339;BME280;1180;51.438;6.978;2024-01-30T11:41:48;101357.53;;;14.96;70.24
2339;BME280;1180;51.438;6.978;2024-01-30T11:44:15;101361.03;;;14.95;70.39
2339;BME280;1180;51.438;6.978;2024-01-30T11:46:41;101358.44;;;15.09;70.15
2339;BME280;1180;51.438;6.978;2024-01-30T11:49:06;101369.44;;;15.13;69.93
2339;BME280;1180;51.438;6.978;2024-01-30T11:51:32;101366.75;;;15.14;70.15
2339;BME280;1180;51.438;6.978;2024-01-30T11:53:57;101378.22;;;15.10;70.01
2339;BME280;1180;51.438;6.978;2024-01-30T11:56:24;101370.72;;;14.91;70.49
2339;BME280;1180;51.438;6.978;2024-01-30T11:58:50;101362.06;;;14.92;70.99
2339;BME280;1180;51.438;6.978;2024-01-30T12:01:17;101372.38;;;14.92;71.60
2339;BME280;1180;51.438;6.978;2024-01-30T12:03:42;101370.66;;;14.93;71.76
2339;BME280;1180;51.438;6.978;2024-01-30T12:06:08;101367.78;;;14.97;71.23
2339;BME280;1180;51.438;6.978;2024-01-30T12:08:33;101372.56;;;14.89;71.83
2339;BME280;1180;51.438;6.978;2024-01-30T12:10:59;101366.22;;;14.95;71.50
2339;BME280;1180;51.438;6.978;2024-01-30T12:13:28;101366.41;;;14.92;72.03
2339;BME280;1180;51.438;6.978;2024-01-30T12:15:54;101361.38;;;14.88;71.98
2339;BME280;1180;51.438;6.978;2024-01-30T12:18:20;101366.00;;;14.83;72.62
2339;BME280;1180;51.438;6.978;2024-01-30T12:20:45;101357.34;;;14.84;73.11
2339;BME280;1180;51.438;6.978;2024-01-30T12:23:12;101359.53;;;14.91;73.30
2339;BME280;1180;51.438;6.978;2024-01-30T12:25:38;101357.81;;;14.91;73.04
2339;BME280;1180;51.438;6.978;2024-01-30T12:28:04;101354.75;;;14.84;74.41
2339;BME280;1180;51.438;6.978;2024-01-30T12:30:29;101360.75;;;14.85;74.50
2339;BME280;1180;51.438;6.978;2024-01-30T12:32:55;101362.41;;;15.00;74.00
2339;BME280;1180;51.438;6.978;2024-01-30T12:35:20;101358.47;;;14.95;74.30
2339;BME280;1180;51.438;6.978;2024-01-30T12:37:47;101364.06;;;15.01;74.38
2339;BME280;1180;51.438;6.978;2024-01-30T12:40:14;101357.34;;;15.13;73.82
2339;BME280;1180;51.438;6.978;2024-01-30T12:42:40;101356.31;;;15.16;73.52
2339;BME280;1180;51.438;6.978;2024-01-30T12:45:08;101351.44;;;15.11;73.49
2339;BME280;1180;51.438;6.978;2024-01-30T12:47:33;101354.94;;;15.10;73.87
2339;BME280;1180;51.438;6.978;2024-01-30T12:49:59;101348.13;;;14.95;74.95
2339;BME280;1180;51.438;6.978;2024-01-30T12:52:24;101358.34;;;14.96;75.16
2339;BME280;1180;51.438;6.978;2024-01-30T12:54:51;101352.06;;;15.00;75.04
2339;BME280;1180;51.438;6.978;2024-01-30T12:57:17;101350.22;;;15.02;74.97
2339;BME280;1180;51.438;6.978;2024-01-30T12:59:43;101347.00;;;14.99;75.21
2339;BME280;1180;51.438;6.978;2024-01-30T13:02:09;101356.25;;;15.03;74.88
2339;BME280;1180;51.438;6.978;2024-01-30T13:04:35;101351.44;;;15.11;74.59